Time;durP1;ratioP1;P1;durP2;ratioP2;P2;SDS_P1;SDS_P2;PMS_P1;PMS_P2;Temp;Humidity;BMP_temperature;BMP_pressure;BME280_temperature;BME280_humidity;BME280_pressure;Samples;Min_cycle;Max_cycle;Signal;HPM_P1;HPM_P2
2021/09/11 00:00:24;;;;;;;;;;;25.40;99.90;;;;;;1893604;75;20144;-88
2021/09/11 00:02:54;;;;;;;;;;;25.50;99.90;;;;;;1893779;76;20113;-89
2021/09/11 00:05:26;;;;;;;;;;;25.50;99.90;;;;;;1893644;76;20153;-89
2021/09/11 00:07:56;;;;;;;;;;;25.50;99.90;;;;;;1893574;76;20155;-90
2021/09/11 00:10:25;;;;;;;;;;;25.60;99.90;;;;;;1893419;75;20125;-90
2021/09/11 00:12:55;;;;;;;;;;;25.60;99.90;;;;;;1893573;76;20113;-89
2021/09/11 00:15:31;;;;;;;;;;;25.60;99.90;;;;;;1893332;76;20396;-89
2021/09/11 00:17:59;;;;;;;;;;;25.70;99.90;;;;;;1893193;76;20128;-90
2021/09/11 00:20:31;;;;;;;;;;;25.70;99.90;;;;;;1893486;76;20129;-90
2021/09/11 00:23:07;;;;;;;;;;;25.70;99.90;;;;;;1890344;75;20132;-88
2021/09/11 00:25:33;;;;;;;;;;;25.70;99.90;;;;;;1892935;76;20153;-88
2021/09/11 00:28:04;;;;;;;;;;;25.80;99.90;;;;;;1893272;76;20435;-91
2021/09/11 00:30:34;;;;;;;;;;;25.80;99.90;;;;;;1893542;76;20125;-90
2021/09/11 00:33:07;;;;;;;;;;;25.80;99.90;;;;;;1893156;76;20133;-89
2021/09/11 00:35:38;;;;;;;;;;;25.80;99.90;;;;;;1893382;76;20125;-88
2021/09/11 00:38:09;;;;;;;;;;;25.80;99.90;;;;;;1893134;75;20125;-90
2021/09/11 00:40:38;;;;;;;;;;;25.80;99.90;;;;;;1893399;76;20137;-91
2021/09/11 00:43:13;;;;;;;;;;;25.80;99.90;;;;;;1892948;75;20124;-90
2021/09/11 00:45:40;;;;;;;;;;;25.80;99.90;;;;;;1893304;76;20145;-90
2021/09/11 00:48:13;;;;;;;;;;;25.80;99.90;;;;;;1899866;74;20141;-91
2021/09/11 00:50:44;;;;;;;;;;;25.90;99.90;;;;;;1885462;75;20123;-90
2021/09/11 00:53:15;;;;;;;;;;;26.00;99.90;;;;;;1912851;75;20153;-90
2021/09/11 00:55:46;;;;;;;;;;;26.00;99.90;;;;;;1913618;75;20125;-90
2021/09/11 00:58:16;;;;;;;;;;;26.10;99.90;;;;;;1913702;75;20447;-89
2021/09/11 01:00:45;;;;;;;;;;;26.10;99.90;;;;;;1913645;75;20124;-90
2021/09/11 01:03:16;;;;;;;;;;;26.10;99.90;;;;;;1912844;74;20145;-89
2021/09/11 01:05:49;;;;;;;;;;;26.10;99.90;;;;;;1913541;75;20380;-91
2021/09/11 01:08:19;;;;;;;;;;;26.20;99.90;;;;;;1912732;75;20145;-88
2021/09/11 01:10:50;;;;;;;;;;;26.20;99.90;;;;;;1913243;75;20108;-88
2021/09/11 01:13:20;;;;;;;;;;;26.20;99.90;;;;;;1888094;75;20117;-85
2021/09/11 01:15:49;;;;;;;;;;;26.20;99.90;;;;;;1917550;75;20124;-89
2021/09/11 01:18:20;;;;;;;;;;;26.30;99.90;;;;;;1917215;75;20207;-87
2021/09/11 01:20:50;;;;;;;;;;;26.30;99.90;;;;;;1890590;75;20127;-88
2021/09/11 01:23:20;;;;;;;;;;;26.30;99.90;;;;;;1914254;75;20149;-89
2021/09/11 01:25:53;;;;;;;;;;;26.40;99.90;;;;;;1914001;75;20129;-88
2021/09/11 01:28:28;;;;;;;;;;;26.40;99.90;;;;;;1914288;74;20176;-89
2021/09/11 01:31:05;;;;;;;;;;;26.50;99.90;;;;;;1913580;75;20172;-88
2021/09/11 01:33:38;;;;;;;;;;;26.60;99.90;;;;;;1913191;74;20383;-88
2021/09/11 01:36:09;;;;;;;;;;;26.60;99.90;;;;;;1913230;75;20409;-89
2021/09/11 01:38:39;;;;;;;;;;;26.70;99.90;;;;;;1913233;75;20427;-88
2021/09/11 01:41:11;;;;;;;;;;;26.80;99.90;;;;;;1909020;74;20161;-88
2021/09/11 01:43:41;;;;;;;;;;;26.80;99.90;;;;;;1913227;75;20356;-89
2021/09/11 01:46:12;;;;;;;;;;;26.90;99.90;;;;;;1913032;75;20170;-88
2021/09/11 01:48:54;;;;;;;;;;;26.90;99.90;;;;;;1881900;76;20156;-89
2021/09/11 01:51:29;;;;;;;;;;;27.00;99.90;;;;;;1892969;76;20404;-88
2021/09/11 01:54:00;;;;;;;;;;;26.90;99.90;;;;;;1880197;75;20423;-88
2021/09/11 01:56:56;;;;;;;;;;;27.00;99.90;;;;;;1893131;75;20125;-88
2021/09/11 01:59:24;;;;;;;;;;;27.00;99.90;;;;;;1841727;77;20146;-89
2021/09/11 02:01:55;;;;;;;;;;;27.10;99.90;;;;;;1860254;77;20154;-88
2021/09/11 02:08:09;;;;;;;;;;;;;;;;;;;;;
2021/09/11 02:32:19;;;;;;;;;;;27.30;99.90;;;;;;1951111;73;20180;-83
2021/09/11 02:34:49;;;;;;;;;;;28.10;99.90;;;;;;1957423;73;20159;-80
2021/09/11 02:37:18;;;;;;;;;;;28.20;99.90;;;;;;1956803;73;20206;-81
2021/09/11 02:39:49;;;;;;;;;;;28.20;99.90;;;;;;1956900;73;20198;-78
2021/09/11 02:42:18;;;;;;;;;;;28.20;99.90;;;;;;1956974;73;20202;-78
2021/09/11 02:44:48;;;;;;;;;;;28.30;99.90;;;;;;1957037;73;20171;-78
2021/09/11 02:47:20;;;;;;;;;;;28.30;99.90;;;;;;1956790;73;20565;-81
2021/09/11 02:49:50;;;;;;;;;;;28.30;99.90;;;;;;1940257;73;20185;-79
2021/09/11 02:52:19;;;;;;;;;;;28.50;99.90;;;;;;1929224;74;20192;-80
2021/09/11 02:54:49;;;;;;;;;;;28.50;99.90;;;;;;1929123;74;20272;-80
2021/09/11 02:57:19;;;;;;;;;;;28.40;99.90;;;;;;1929192;74;20161;-79
2021/09/11 02:59:49;;;;;;;;;;;28.40;99.90;;;;;;1929023;74;20256;-79
2021/09/11 03:02:18;;;;;;;;;;;28.40;99.90;;;;;;1928987;74;20169;-80
2021/09/11 03:04:48;;;;;;;;;;;28.40;99.90;;;;;;1929099;74;20444;-80
2021/09/11 03:07:18;;;;;;;;;;;28.40;99.90;;;;;;1929061;74;20208;-80
2021/09/11 03:09:48;;;;;;;;;;;28.50;99.90;;;;;;1929027;74;20177;-79
2021/09/11 03:12:17;;;;;;;;;;;28.60;99.90;;;;;;1929061;74;20165;-80
2021/09/11 03:14:47;;;;;;;;;;;28.60;99.90;;;;;;1928984;74;20180;-80
2021/09/11 03:17:17;;;;;;;;;;;28.70;99.90;;;;;;1928941;74;20201;-81
2021/09/11 03:19:47;;;;;;;;;;;28.70;99.90;;;;;;1929199;74;20211;-81
2021/09/11 03:22:17;;;;;;;;;;;28.70;99.90;;;;;;1929096;74;20178;-81
2021/09/11 03:24:51;;;;;;;;;;;28.70;99.90;;;;;;1929134;74;20188;-80
2021/09/11 03:27:18;;;;;;;;;;;28.70;99.90;;;;;;1928869;74;20165;-79
2021/09/11 03:29:47;;;;;;;;;;;28.80;99.90;;;;;;1928871;74;20640;-79
2021/09/11 03:32:17;;;;;;;;;;;28.70;99.90;;;;;;1930748;74;20174;-79
2021/09/11 03:34:47;;;;;;;;;;;28.80;99.90;;;;;;1930744;74;20215;-80
2021/09/11 03:37:17;;;;;;;;;;;28.70;99.90;;;;;;1930265;74;20169;-79
2021/09/11 03:39:47;;;;;;;;;;;28.80;99.90;;;;;;1930709;74;20494;-81
2021/09/11 03:42:16;;;;;;;;;;;28.70;99.90;;;;;;1931784;74;20220;-80
2021/09/11 03:44:46;;;;;;;;;;;28.70;99.90;;;;;;1931976;74;20189;-79
2021/09/11 03:47:16;;;;;;;;;;;28.60;99.90;;;;;;1931897;74;20235;-79
2021/09/11 03:49:46;;;;;;;;;;;28.60;99.90;;;;;;1932044;74;20352;-80
2021/09/11 03:52:16;;;;;;;;;;;28.60;99.90;;;;;;1932228;74;20557;-80
2021/09/11 03:54:45;;;;;;;;;;;28.60;99.90;;;;;;1905970;74;20270;-78
2021/09/11 03:57:15;;;;;;;;;;;28.60;99.90;;;;;;1943936;74;20203;-77
2021/09/11 03:59:45;;;;;;;;;;;28.60;99.90;;;;;;1924452;74;20153;-80
2021/09/11 04:02:15;;;;;;;;;;;28.60;99.90;;;;;;1907112;75;20161;-78
2021/09/11 04:04:45;;;;;;;;;;;28.70;99.90;;;;;;1907225;75;20161;-78
2021/09/11 04:07:15;;;;;;;;;;;28.70;99.90;;;;;;1907285;75;20169;-77
2021/09/11 04:09:45;;;;;;;;;;;28.80;99.90;;;;;;1907304;75;20172;-77
2021/09/11 04:12:15;;;;;;;;;;;28.80;99.90;;;;;;1931935;74;20242;-77
2021/09/11 04:14:45;;;;;;;;;;;28.90;99.90;;;;;;1918195;74;20203;-77
2021/09/11 04:17:14;;;;;;;;;;;28.90;99.90;;;;;;1905679;74;20192;-77
2021/09/11 04:19:44;;;;;;;;;;;28.90;99.90;;;;;;1906856;75;20194;-76
2021/09/11 04:22:14;;;;;;;;;;;29.00;99.90;;;;;;1904633;75;20246;-77
2021/09/11 04:24:44;;;;;;;;;;;29.00;99.90;;;;;;1901345;74;20211;-79
2021/09/11 04:27:14;;;;;;;;;;;29.00;99.90;;;;;;1906016;75;20192;-79
2021/09/11 04:29:44;;;;;;;;;;;29.10;99.90;;;;;;1906849;75;20545;-79
2021/09/11 04:32:14;;;;;;;;;;;29.10;99.90;;;;;;1957324;72;20161;-80
2021/09/11 04:34:44;;;;;;;;;;;29.10;99.90;;;;;;1990267;72;20196;-79
2021/09/11 04:37:14;;;;;;;;;;;29.10;99.90;;;;;;1989999;72;20223;-78
2021/09/11 04:39:44;;;;;;;;;;;29.10;99.90;;;;;;1990055;72;20169;-78
2021/09/11 04:42:14;;;;;;;;;;;29.20;99.90;;;;;;1971817;72;20201;-79
2021/09/11 04:44:45;;;;;;;;;;;29.20;99.90;;;;;;1923889;73;20527;-78
2021/09/11 04:47:17;;;;;;;;;;;29.20;99.90;;;;;;1813264;77;20233;-78
2021/09/11 04:49:47;;;;;;;;;;;29.20;99.90;;;;;;1797165;78;20235;-79
2021/09/11 04:52:17;;;;;;;;;;;29.20;99.90;;;;;;1817955;79;20326;-78
2021/09/11 04:54:47;;;;;;;;;;;29.20;99.90;;;;;;1818151;79;20204;-79
2021/09/11 04:57:17;;;;;;;;;;;29.20;99.90;;;;;;1818030;79;20781;-77
2021/09/11 04:59:47;;;;;;;;;;;29.20;99.90;;;;;;1817969;79;20255;-78
2021/09/11 05:02:17;;;;;;;;;;;29.20;99.90;;;;;;1805115;78;20350;-78
2021/09/11 05:04:47;;;;;;;;;;;29.20;99.90;;;;;;1788327;80;20286;-79
2021/09/11 05:07:18;;;;;;;;;;;29.30;99.90;;;;;;1788083;79;20618;-78
2021/09/11 05:09:48;;;;;;;;;;;29.30;99.90;;;;;;1788550;80;20254;-78
2021/09/11 05:12:18;;;;;;;;;;;29.40;99.90;;;;;;1778661;79;20242;-78
2021/09/11 05:14:48;;;;;;;;;;;29.50;99.90;;;;;;1766359;81;20227;-80
2021/09/11 05:17:17;;;;;;;;;;;29.60;99.90;;;;;;1795175;78;20357;-80
2021/09/11 05:19:47;;;;;;;;;;;29.70;99.90;;;;;;1885212;74;20216;-80
2021/09/11 05:22:19;;;;;;;;;;;29.70;99.90;;;;;;1895839;75;20177;-80
2021/09/11 05:24:48;;;;;;;;;;;29.80;99.90;;;;;;1923942;74;20188;-80
2021/09/11 05:27:18;;;;;;;;;;;29.90;99.90;;;;;;1900231;74;20560;-80
2021/09/11 05:29:48;;;;;;;;;;;29.90;99.90;;;;;;1890749;75;20880;-80
2021/09/11 05:32:18;;;;;;;;;;;29.90;99.80;;;;;;1890808;75;20194;-81
2021/09/11 05:34:48;;;;;;;;;;;29.90;99.90;;;;;;1890501;76;20261;-79
2021/09/11 05:37:17;;;;;;;;;;;29.90;99.80;;;;;;1890990;74;20212;-80
2021/09/11 05:39:47;;;;;;;;;;;30.00;99.90;;;;;;1923757;74;20605;-80
2021/09/11 05:42:19;;;;;;;;;;;30.00;99.80;;;;;;1906798;74;20387;-79
2021/09/11 05:44:48;;;;;;;;;;;30.00;99.60;;;;;;1898885;74;20180;-79
2021/09/11 05:47:18;;;;;;;;;;;30.00;99.70;;;;;;1905888;73;20207;-80
2021/09/11 05:49:48;;;;;;;;;;;30.10;99.30;;;;;;1885854;76;20171;-79
2021/09/11 05:52:17;;;;;;;;;;;30.20;99.10;;;;;;1900020;74;20235;-79
2021/09/11 05:54:50;;;;;;;;;;;30.30;99.20;;;;;;1908730;74;20273;-80
2021/09/11 05:57:22;;;;;;;;;;;30.30;98.90;;;;;;1919267;74;20195;-80
2021/09/11 05:59:53;;;;;;;;;;;30.30;98.50;;;;;;1885689;76;20160;-80
2021/09/11 06:02:23;;;;;;;;;;;30.30;99.00;;;;;;1885588;76;20167;-80
2021/09/11 06:04:53;;;;;;;;;;;30.20;98.60;;;;;;1885657;76;20174;-79
2021/09/11 06:07:23;;;;;;;;;;;30.20;98.70;;;;;;1896753;74;20121;-78
2021/09/11 06:09:53;;;;;;;;;;;30.30;98.30;;;;;;1885939;76;20195;-78
2021/09/11 06:12:23;;;;;;;;;;;30.30;97.80;;;;;;1885617;76;20195;-80
2021/09/11 06:14:53;;;;;;;;;;;30.30;96.60;;;;;;1885278;76;20183;-80
2021/09/11 06:17:22;;;;;;;;;;;30.30;97.10;;;;;;1885741;76;20160;-80
2021/09/11 06:19:52;;;;;;;;;;;30.30;96.30;;;;;;1885407;76;20188;-80
2021/09/11 06:22:22;;;;;;;;;;;30.40;96.70;;;;;;1886967;74;20159;-80
2021/09/11 06:24:51;;;;;;;;;;;30.30;96.70;;;;;;1886333;76;20210;-79
2021/09/11 06:27:21;;;;;;;;;;;30.30;96.40;;;;;;1894686;74;20188;-79
2021/09/11 06:29:51;;;;;;;;;;;30.30;94.80;;;;;;1925811;74;20227;-80
2021/09/11 06:32:21;;;;;;;;;;;30.20;95.40;;;;;;1903384;74;20447;-78
2021/09/11 06:34:54;;;;;;;;;;;30.20;95.60;;;;;;1925670;74;20196;-81
2021/09/11 06:37:24;;;;;;;;;;;30.20;95.90;;;;;;1896894;73;20212;-80
2021/09/11 06:39:54;;;;;;;;;;;30.20;95.60;;;;;;1904343;74;20199;-81
2021/09/11 06:42:26;;;;;;;;;;;30.30;95.40;;;;;;1925928;74;20203;-79
2021/09/11 06:44:56;;;;;;;;;;;30.30;95.90;;;;;;1926997;74;20592;-79
2021/09/11 06:47:27;;;;;;;;;;;30.30;95.30;;;;;;1910757;74;20238;-81
2021/09/11 06:49:56;;;;;;;;;;;30.30;96.10;;;;;;1894028;74;20320;-79
2021/09/11 06:52:26;;;;;;;;;;;30.30;96.60;;;;;;1900745;74;20203;-81
2021/09/11 06:54:56;;;;;;;;;;;30.40;96.70;;;;;;1924438;74;20620;-78
2021/09/11 06:57:26;;;;;;;;;;;30.40;95.90;;;;;;1896720;74;20182;-79
2021/09/11 06:59:57;;;;;;;;;;;30.40;96.00;;;;;;1890996;76;20540;-79
2021/09/11 07:02:28;;;;;;;;;;;30.40;95.70;;;;;;1892553;76;20195;-79
2021/09/11 07:04:58;;;;;;;;;;;30.50;96.70;;;;;;1905303;74;20188;-78
2021/09/11 07:07:29;;;;;;;;;;;30.50;96.50;;;;;;1924942;74;20145;-79
2021/09/11 07:09:59;;;;;;;;;;;30.60;96.50;;;;;;1925911;74;20132;-79
2021/09/11 07:12:32;;;;;;;;;;;30.60;96.10;;;;;;1924923;74;20462;-79
2021/09/11 07:15:03;;;;;;;;;;;30.60;95.70;;;;;;1924699;74;20192;-79
2021/09/11 07:17:32;;;;;;;;;;;30.70;96.70;;;;;;1923040;74;20329;-79
2021/09/11 07:20:02;;;;;;;;;;;30.70;96.10;;;;;;1923915;74;20188;-79
2021/09/11 07:22:32;;;;;;;;;;;30.70;96.70;;;;;;1890835;76;20222;-79
2021/09/11 07:25:03;;;;;;;;;;;30.70;97.10;;;;;;1890884;76;20568;-79
2021/09/11 07:27:33;;;;;;;;;;;30.70;96.30;;;;;;1909435;74;20650;-80
2021/09/11 07:30:03;;;;;;;;;;;30.60;96.50;;;;;;1899976;74;20203;-79
2021/09/11 07:32:33;;;;;;;;;;;30.60;96.30;;;;;;1898397;74;20578;-80
2021/09/11 07:35:03;;;;;;;;;;;30.50;96.40;;;;;;1876001;76;20501;-79
2021/09/11 07:37:33;;;;;;;;;;;30.40;96.80;;;;;;1892152;74;20195;-80
2021/09/11 07:40:02;;;;;;;;;;;30.40;96.50;;;;;;1869467;76;20186;-78
2021/09/11 07:42:32;;;;;;;;;;;30.30;97.10;;;;;;1890834;76;20361;-79
2021/09/11 07:45:02;;;;;;;;;;;30.30;96.80;;;;;;1883246;76;20266;-79
2021/09/11 07:47:32;;;;;;;;;;;30.30;97.00;;;;;;1860752;76;20196;-78
2021/09/11 07:50:01;;;;;;;;;;;30.30;96.70;;;;;;1872166;76;20241;-79
2021/09/11 07:52:31;;;;;;;;;;;30.30;96.90;;;;;;1887872;76;20233;-79
2021/09/11 07:55:01;;;;;;;;;;;30.30;96.20;;;;;;1872675;76;20171;-79
2021/09/11 07:57:32;;;;;;;;;;;30.40;96.50;;;;;;1871526;77;20223;-79
2021/09/11 08:00:01;;;;;;;;;;;30.40;96.00;;;;;;1871566;77;20155;-79
2021/09/11 08:02:31;;;;;;;;;;;30.40;96.00;;;;;;1870748;76;20208;-81
2021/09/11 08:05:02;;;;;;;;;;;30.50;96.00;;;;;;1889177;76;20210;-80
2021/09/11 08:07:32;;;;;;;;;;;30.50;96.50;;;;;;1882321;76;20182;-79
2021/09/11 08:10:01;;;;;;;;;;;30.50;96.40;;;;;;1859813;77;20205;-80
2021/09/11 08:12:31;;;;;;;;;;;30.50;95.80;;;;;;1859853;77;20165;-80
2021/09/11 08:15:02;;;;;;;;;;;30.40;95.90;;;;;;1875861;76;20203;-80
2021/09/11 08:17:32;;;;;;;;;;;30.50;96.40;;;;;;1865246;76;20253;-79
2021/09/11 08:20:02;;;;;;;;;;;30.40;95.90;;;;;;1873394;76;20203;-79
2021/09/11 08:22:35;;;;;;;;;;;30.40;96.40;;;;;;1893636;76;20214;-79
2021/09/11 08:25:06;;;;;;;;;;;30.40;96.80;;;;;;1896550;76;20124;-81
2021/09/11 08:27:37;;;;;;;;;;;30.40;96.70;;;;;;1891436;75;20210;-79
2021/09/11 08:30:10;;;;;;;;;;;30.50;96.70;;;;;;1880682;76;20202;-80
2021/09/11 08:32:41;;;;;;;;;;;30.60;96.70;;;;;;1883832;76;20214;-80
2021/09/11 08:35:13;;;;;;;;;;;30.60;97.50;;;;;;1877077;76;20128;-80
2021/09/11 08:37:50;;;;;;;;;;;30.70;98.20;;;;;;1876452;76;20202;-78
2021/09/11 08:40:23;;;;;;;;;;;30.60;96.80;;;;;;1880931;76;20544;-79
2021/09/11 08:42:53;;;;;;;;;;;30.60;97.80;;;;;;1877519;76;20225;-80
2021/09/11 08:45:22;;;;;;;;;;;30.60;96.80;;;;;;1880943;76;20167;-80
2021/09/11 08:47:53;;;;;;;;;;;30.60;96.50;;;;;;1868037;76;20255;-79
2021/09/11 08:50:26;;;;;;;;;;;30.60;97.00;;;;;;1889883;75;20595;-80
2021/09/11 08:53:00;;;;;;;;;;;30.60;96.80;;;;;;1883393;75;20194;-79
2021/09/11 08:55:34;;;;;;;;;;;30.60;97.20;;;;;;1895767;75;20696;-79
2021/09/11 08:58:02;;;;;;;;;;;30.60;97.70;;;;;;1897505;75;20369;-79
2021/09/11 09:00:32;;;;;;;;;;;30.60;95.50;;;;;;1894801;74;20265;-83
2021/09/11 09:03:02;;;;;;;;;;;30.60;97.10;;;;;;1883299;74;20239;-83
2021/09/11 09:05:32;;;;;;;;;;;30.60;96.10;;;;;;1918634;74;20222;-82
2021/09/11 09:08:02;;;;;;;;;;;30.50;95.30;;;;;;1902402;74;20214;-81
2021/09/11 09:10:32;;;;;;;;;;;30.40;96.00;;;;;;1898559;75;20922;-83
2021/09/11 09:13:02;;;;;;;;;;;30.40;96.10;;;;;;1896070;75;20193;-81
2021/09/11 09:15:33;;;;;;;;;;;30.30;96.30;;;;;;1867044;76;20208;-85
2021/09/11 09:18:03;;;;;;;;;;;30.30;96.30;;;;;;1878255;74;20174;-82
2021/09/11 09:20:33;;;;;;;;;;;30.30;96.30;;;;;;1871954;75;20274;-83
2021/09/11 09:23:06;;;;;;;;;;;30.20;96.10;;;;;;1877611;75;20285;-84
2021/09/11 09:25:37;;;;;;;;;;;30.30;96.70;;;;;;1872389;74;21054;-82
2021/09/11 09:28:09;;;;;;;;;;;30.30;97.00;;;;;;1879916;74;20188;-83
2021/09/11 09:30:40;;;;;;;;;;;30.30;98.00;;;;;;1880486;74;20342;-82
2021/09/11 09:33:10;;;;;;;;;;;30.40;98.30;;;;;;1880129;74;20679;-81
2021/09/11 09:35:40;;;;;;;;;;;30.40;99.80;;;;;;1884010;74;20440;-84
2021/09/11 09:38:14;;;;;;;;;;;30.40;99.70;;;;;;1893598;74;20243;-80
2021/09/11 09:40:42;;;;;;;;;;;30.40;99.80;;;;;;1886439;75;20221;-82
2021/09/11 09:43:15;;;;;;;;;;;30.40;99.60;;;;;;1877927;75;20242;-81
2021/09/11 09:45:45;;;;;;;;;;;30.40;99.40;;;;;;1857354;76;20319;-82
2021/09/11 09:48:20;;;;;;;;;;;30.40;99.00;;;;;;1869191;76;20275;-83
2021/09/11 09:50:49;;;;;;;;;;;30.40;99.20;;;;;;1880268;76;20206;-82
2021/09/11 09:53:19;;;;;;;;;;;30.40;98.10;;;;;;1854629;77;20722;-87
2021/09/11 09:55:49;;;;;;;;;;;30.40;98.80;;;;;;1867769;76;20206;-83
2021/09/11 09:58:19;;;;;;;;;;;30.40;99.30;;;;;;1888930;76;20226;-84
2021/09/11 10:00:48;;;;;;;;;;;30.40;99.50;;;;;;1889001;76;20234;-83
2021/09/11 10:03:18;;;;;;;;;;;30.30;99.00;;;;;;1864706;74;20215;-82
2021/09/11 10:05:49;;;;;;;;;;;30.30;97.80;;;;;;1891276;76;20370;-83
2021/09/11 10:08:19;;;;;;;;;;;30.30;98.90;;;;;;1892798;76;20359;-83
2021/09/11 10:10:50;;;;;;;;;;;30.20;98.40;;;;;;1864929;76;20182;-81
2021/09/11 10:13:22;;;;;;;;;;;30.20;99.40;;;;;;1878307;76;20253;-79
2021/09/11 10:15:53;;;;;;;;;;;30.20;99.70;;;;;;1872854;76;20222;-79
2021/09/11 10:18:24;;;;;;;;;;;30.20;99.30;;;;;;1877841;76;20237;-79
2021/09/11 10:20:55;;;;;;;;;;;30.10;99.50;;;;;;1872331;76;20209;-79
2021/09/11 10:23:24;;;;;;;;;;;30.10;99.90;;;;;;1882729;76;20272;-79
2021/09/11 10:25:54;;;;;;;;;;;30.10;99.90;;;;;;1891024;76;20206;-80
2021/09/11 10:28:24;;;;;;;;;;;30.10;99.90;;;;;;1890121;76;20265;-78
2021/09/11 10:30:55;;;;;;;;;;;30.10;99.90;;;;;;1890374;76;20591;-78
2021/09/11 10:33:26;;;;;;;;;;;30.00;99.40;;;;;;1890356;76;20233;-78
2021/09/11 10:35:56;;;;;;;;;;;30.00;99.40;;;;;;1883440;76;20218;-78
2021/09/11 10:38:27;;;;;;;;;;;30.00;99.50;;;;;;1878246;76;20173;-78
2021/09/11 10:40:58;;;;;;;;;;;30.00;99.00;;;;;;1880932;76;20268;-78
2021/09/11 10:43:32;;;;;;;;;;;29.90;98.40;;;;;;1877380;76;20346;-78
2021/09/11 10:46:02;;;;;;;;;;;30.00;98.50;;;;;;1890528;76;20230;-77
2021/09/11 10:48:33;;;;;;;;;;;29.90;98.70;;;;;;1892098;76;20224;-77
2021/09/11 10:51:04;;;;;;;;;;;29.90;98.70;;;;;;1892818;75;20272;-78
2021/09/11 10:53:35;;;;;;;;;;;29.80;98.60;;;;;;1892592;76;20202;-78
2021/09/11 10:56:05;;;;;;;;;;;29.70;98.40;;;;;;1892485;76;20304;-78
2021/09/11 10:58:35;;;;;;;;;;;29.70;98.30;;;;;;1892692;76;20264;-78
2021/09/11 11:01:05;;;;;;;;;;;29.70;98.30;;;;;;1892575;76;20256;-78
2021/09/11 11:03:35;;;;;;;;;;;29.70;98.50;;;;;;1877662;76;20633;-78
2021/09/11 11:06:05;;;;;;;;;;;29.60;98.70;;;;;;1892668;76;20424;-78
2021/09/11 11:08:35;;;;;;;;;;;29.60;99.30;;;;;;1894299;76;20284;-78
2021/09/11 11:14:58;;;;;;;;;;;29.30;99.80;;;;;;1893051;76;20261;-79
2021/09/11 11:17:29;;;;;;;;;;;29.10;99.90;;;;;;1892603;76;20205;-79
2021/09/11 11:19:59;;;;;;;;;;;28.90;99.90;;;;;;1892816;76;20421;-78
2021/09/11 11:25:06;;;;;;;;;;;28.70;99.90;;;;;;1890237;76;20198;-78
2021/09/11 11:27:36;;;;;;;;;;;28.60;99.90;;;;;;1892904;76;20253;-79
2021/09/11 11:30:07;;;;;;;;;;;28.50;99.90;;;;;;1892305;76;20244;-79
2021/09/11 11:32:38;;;;;;;;;;;28.40;99.90;;;;;;1892697;76;20478;-78
2021/09/11 11:35:08;;;;;;;;;;;28.20;99.90;;;;;;1892776;76;20316;-78
2021/09/11 11:37:39;;;;;;;;;;;28.10;99.90;;;;;;1882800;76;20198;-78
2021/09/11 11:40:11;;;;;;;;;;;28.00;99.90;;;;;;1867107;76;20245;-78
2021/09/11 11:42:42;;;;;;;;;;;27.90;99.90;;;;;;1877903;76;20265;-78
2021/09/11 11:45:13;;;;;;;;;;;27.90;99.90;;;;;;1877879;76;20267;-79
2021/09/11 11:47:44;;;;;;;;;;;27.90;99.90;;;;;;1869841;76;20198;-80
2021/09/11 11:50:15;;;;;;;;;;;27.90;99.90;;;;;;1860700;74;20190;-79
2021/09/11 11:52:47;;;;;;;;;;;27.90;99.90;;;;;;1834375;77;20249;-79
2021/09/11 11:55:36;;;;;;;;;;;27.90;99.90;;;;;;1826300;77;20349;-79
2021/09/11 11:58:08;;;;;;;;;;;27.90;99.90;;;;;;1844328;77;20225;-77
2021/09/11 12:00:39;;;;;;;;;;;27.90;99.90;;;;;;1844763;77;20174;-78
2021/09/11 12:09:35;;;;;;;;;;;27.90;99.90;;;;;;1809889;79;20206;-79
2021/09/11 12:12:12;;;;;;;;;;;27.90;99.90;;;;;;1853886;77;20510;-79
2021/09/11 12:14:36;;;;;;;;;;;27.90;99.90;;;;;;1853078;77;20193;-79
2021/09/11 12:20:12;;;;;;;;;;;28.00;99.90;;;;;;1791482;80;20254;-79
2021/09/11 12:22:42;;;;;;;;;;;28.00;99.90;;;;;;1791943;80;20304;-79
2021/09/11 12:25:12;;;;;;;;;;;28.00;99.90;;;;;;1805553;79;20563;-79
2021/09/11 12:27:41;;;;;;;;;;;28.00;99.90;;;;;;1815556;79;20295;-79
2021/09/11 12:30:12;;;;;;;;;;;28.00;99.90;;;;;;1792742;79;20353;-79
2021/09/11 12:32:43;;;;;;;;;;;28.00;99.90;;;;;;1792966;79;20310;-79
2021/09/11 12:35:13;;;;;;;;;;;28.00;99.90;;;;;;1791315;80;20223;-79
2021/09/11 12:37:44;;;;;;;;;;;28.00;99.90;;;;;;1791624;79;20402;-79
2021/09/11 12:40:14;;;;;;;;;;;28.00;99.90;;;;;;1796750;79;20715;-79
2021/09/11 12:42:44;;;;;;;;;;;28.00;99.90;;;;;;1821080;79;20275;-79
2021/09/11 12:45:14;;;;;;;;;;;28.00;99.90;;;;;;1792395;80;20306;-79
2021/09/11 12:47:44;;;;;;;;;;;28.00;99.90;;;;;;1791711;80;20487;-79
2021/09/11 12:50:14;;;;;;;;;;;28.00;99.90;;;;;;1799440;77;20473;-79
2021/09/11 12:52:44;;;;;;;;;;;28.00;99.90;;;;;;1829061;77;20272;-79
2021/09/11 12:55:15;;;;;;;;;;;27.90;99.90;;;;;;1827930;78;20280;-79
2021/09/11 12:57:45;;;;;;;;;;;27.90;99.90;;;;;;1849405;77;20250;-79
2021/09/11 13:00:15;;;;;;;;;;;27.90;99.90;;;;;;1860525;77;20190;-79
2021/09/11 13:02:45;;;;;;;;;;;27.90;99.90;;;;;;1890434;76;20171;-79
2021/09/11 13:05:15;;;;;;;;;;;27.90;99.90;;;;;;1877286;76;20259;-79
2021/09/11 13:07:45;;;;;;;;;;;27.90;99.90;;;;;;1893115;76;20156;-79
2021/09/11 13:10:15;;;;;;;;;;;27.80;99.90;;;;;;1893044;76;20286;-78
2021/09/11 13:12:45;;;;;;;;;;;27.90;99.90;;;;;;1861938;76;20495;-79
2021/09/11 13:15:16;;;;;;;;;;;27.80;99.90;;;;;;1874400;76;20204;-79
2021/09/11 13:17:46;;;;;;;;;;;27.80;99.90;;;;;;1880779;76;20349;-78
2021/09/11 13:20:17;;;;;;;;;;;27.80;99.90;;;;;;1908336;75;20184;-79
2021/09/11 13:22:47;;;;;;;;;;;27.70;99.90;;;;;;1912198;75;20194;-78
2021/09/11 13:25:17;;;;;;;;;;;27.70;99.90;;;;;;1880751;75;20188;-79
2021/09/11 13:27:47;;;;;;;;;;;27.70;99.90;;;;;;1900227;75;20184;-81
2021/09/11 13:30:18;;;;;;;;;;;27.60;99.90;;;;;;1900912;75;20728;-80
2021/09/11 13:32:48;;;;;;;;;;;27.60;99.90;;;;;;1877497;75;20223;-84
2021/09/11 13:35:18;;;;;;;;;;;27.60;99.90;;;;;;1874008;75;20239;-82
2021/09/11 13:37:48;;;;;;;;;;;27.50;99.90;;;;;;1879456;75;20215;-81
2021/09/11 13:40:18;;;;;;;;;;;27.50;99.90;;;;;;1869912;75;20420;-80
2021/09/11 13:42:48;;;;;;;;;;;27.50;99.90;;;;;;1872925;76;20303;-82
2021/09/11 13:45:18;;;;;;;;;;;27.50;99.90;;;;;;1876576;76;20266;-81
2021/09/11 13:47:48;;;;;;;;;;;27.40;99.90;;;;;;1903169;75;20223;-79
2021/09/11 13:50:18;;;;;;;;;;;27.40;99.90;;;;;;1878467;75;20283;-81
2021/09/11 13:52:49;;;;;;;;;;;27.40;99.90;;;;;;1870124;75;20245;-81
2021/09/11 13:55:19;;;;;;;;;;;27.40;99.90;;;;;;1867023;76;20229;-80
2021/09/11 13:57:49;;;;;;;;;;;27.40;99.90;;;;;;1888830;76;20253;-81
2021/09/11 14:00:19;;;;;;;;;;;27.40;99.90;;;;;;1885535;76;20445;-81
2021/09/11 14:02:48;;;;;;;;;;;27.50;99.90;;;;;;1896940;75;20223;-81
2021/09/11 14:05:19;;;;;;;;;;;27.50;99.90;;;;;;1899410;75;20242;-81
2021/09/11 14:07:49;;;;;;;;;;;27.50;99.90;;;;;;1882989;75;20340;-81
2021/09/11 14:10:19;;;;;;;;;;;27.50;99.90;;;;;;1873523;75;20215;-81
2021/09/11 14:12:49;;;;;;;;;;;27.50;99.90;;;;;;1888307;75;20213;-81
2021/09/11 14:15:20;;;;;;;;;;;27.40;99.90;;;;;;1889046;74;20193;-90
2021/09/11 14:17:50;;;;;;;;;;;27.40;99.90;;;;;;1883836;75;20186;-90
2021/09/11 14:20:20;;;;;;;;;;;27.40;99.90;;;;;;1878254;75;20215;-91
2021/09/11 14:23:22;;;;;;;;;;;;;;;;;;;;;
2021/09/11 14:25:26;;;;;;;;;;;27.30;99.90;;;;;;1895083;75;20236;-91
2021/09/11 14:27:55;;;;;;;;;;;27.30;99.90;;;;;;1875704;75;20239;-90
2021/09/11 14:30:28;;;;;;;;;;;27.30;99.90;;;;;;1869529;75;20212;-90
2021/09/11 14:33:08;;;;;;;;;;;27.30;99.90;;;;;;1889282;74;20237;-89
2021/09/11 14:35:43;;;;;;;;;;;27.30;99.90;;;;;;1898975;75;20176;-91
2021/09/11 14:38:10;;;;;;;;;;;27.30;99.90;;;;;;1886577;75;20205;-88
2021/09/11 14:40:40;;;;;;;;;;;27.30;99.90;;;;;;1900185;75;20328;-91
2021/09/11 14:43:15;;;;;;;;;;;27.20;99.90;;;;;;1898474;75;20198;-89
2021/09/11 14:45:41;;;;;;;;;;;27.20;99.90;;;;;;1899838;75;20225;-89
2021/09/11 14:48:11;;;;;;;;;;;27.20;99.90;;;;;;1899331;75;20320;-90
2021/09/11 14:50:41;;;;;;;;;;;27.20;99.90;;;;;;1898824;75;20193;-88
2021/09/11 14:53:11;;;;;;;;;;;27.20;99.90;;;;;;1890343;75;20194;-89
2021/09/11 14:55:42;;;;;;;;;;;27.20;99.90;;;;;;1881779;75;20202;-89
2021/09/11 14:58:11;;;;;;;;;;;27.10;99.90;;;;;;1884711;75;20221;-90
2021/09/11 15:00:44;;;;;;;;;;;27.20;99.90;;;;;;1883354;75;20449;-89
2021/09/11 15:03:33;;;;;;;;;;;27.20;99.90;;;;;;1882456;75;20229;-89
2021/09/11 15:06:03;;;;;;;;;;;27.10;99.90;;;;;;1893336;75;20249;-91
2021/09/11 15:08:38;;;;;;;;;;;27.20;99.90;;;;;;1894687;75;20186;-90
2021/09/11 15:11:17;;;;;;;;;;;27.20;99.90;;;;;;1890966;75;20151;-89
2021/09/11 15:13:41;;;;;;;;;;;27.10;99.90;;;;;;1892788;75;20230;-90
2021/09/11 15:16:12;;;;;;;;;;;27.10;99.90;;;;;;1884845;75;20299;-89
2021/09/11 15:18:43;;;;;;;;;;;27.10;99.90;;;;;;1899540;75;20173;-90